Time;durP1;ratioP1;P1;durP2;ratioP2;P2;SDS_P1;SDS_P2;PMS_P1;PMS_P2;Temp;Humidity;BMP_temperature;BMP_pressure;BME280_temperature;BME280_humidity;BME280_pressure;Samples;Min_cycle;Max_cycle;Signal;HPM_P1;HPM_P2
2022/10/10 00:04:19;;;;;;;1.67;1.43;;;;;;;18.38;62.99;96708.72;10559433;28;20028;-31
2022/10/10 00:09:19;;;;;;;1.67;1.53;;;;;;;18.43;63.85;96707.06;10567747;28;20345;-30
2022/10/10 00:14:19;;;;;;;3.93;1.43;;;;;;;18.41;62.60;96704.50;10566894;28;20024;-30
2022/10/10 00:19:20;;;;;;;2.28;1.58;;;;;;;18.39;61.76;96701.13;10549321;28;20038;-30
2022/10/10 00:24:20;;;;;;;2.13;1.47;;;;;;;18.36;62.28;96703.69;10568244;28;20131;-30
2022/10/10 00:29:20;;;;;;;2.97;1.53;;;;;;;18.35;62.36;96703.66;10562174;28;20047;-29
2022/10/10 00:34:21;;;;;;;2.60;1.30;;;;;;;18.34;62.64;96702.81;10569731;28;20289;-30
2022/10/10 00:39:21;;;;;;;2.03;1.20;;;;;;;18.34;62.55;96702.81;10566603;28;20024;-29
2022/10/10 00:44:22;;;;;;;1.57;1.10;;;;;;;18.34;62.27;96701.97;10563100;28;20031;-29
2022/10/10 00:49:27;;;;;;;2.60;1.23;;;;;;;18.29;62.72;96698.56;10561529;28;20286;-30
2022/10/10 00:54:30;;;;;;;2.50;1.40;;;;;;;18.32;62.39;96704.50;10564693;28;20282;-30
2022/10/10 00:59:33;;;;;;;1.95;1.42;;;;;;;18.30;62.87;96690.13;10569713;28;20028;-30
2022/10/10 01:04:40;;;;;;;2.83;1.52;;;;;;;18.35;63.45;96701.97;10558368;28;20035;-29
2022/10/10 01:09:43;;;;;;;2.20;1.55;;;;;;;18.39;63.79;96685.94;10570716;28;20492;-29
2022/10/10 01:14:55;;;;;;;1.33;1.23;;;;;;;18.37;62.38;96690.16;10568287;28;20024;-29
2022/10/10 01:20:26;;;;;;;1.83;1.27;;;;;;;18.37;62.32;96682.56;10564661;28;20087;-31
2022/10/10 01:25:32;;;;;;;1.50;1.08;;;;;;;18.35;62.52;96693.53;10567661;28;20122;-30
2022/10/10 01:30:33;;;;;;;1.60;1.10;;;;;;;18.33;62.34;96685.09;10558413;28;20023;-30
2022/10/10 01:35:58;;;;;;;2.67;1.40;;;;;;;18.31;62.52;96682.53;10567063;28;20032;-29
2022/10/10 01:41:16;;;;;;;1.10;1.00;;;;;;;18.32;62.50;96678.34;10561292;28;20036;-30
2022/10/10 01:46:17;;;;;;;2.20;1.08;;;;;;;18.30;62.35;96683.38;10563912;28;20036;-29
2022/10/10 01:51:30;;;;;;;1.23;1.13;;;;;;;18.32;62.29;96679.16;10559288;28;20429;-34
2022/10/10 01:56:33;;;;;;;1.83;0.90;;;;;;;18.31;62.54;96686.75;10559229;28;20032;-29
2022/10/10 02:01:49;;;;;;;1.67;1.27;;;;;;;18.31;62.40;96679.16;10562059;28;20229;-29
2022/10/10 02:06:54;;;;;;;1.85;1.10;;;;;;;18.36;63.59;96682.53;10558359;28;20035;-29
2022/10/10 02:11:57;;;;;;;2.42;1.38;;;;;;;18.37;63.70;96676.63;10561584;28;20023;-30
2022/10/10 02:16:59;;;;;;;2.65;1.27;;;;;;;18.37;62.55;96672.41;10559551;28;20081;-29
2022/10/10 02:22:00;;;;;;;1.90;1.30;;;;;;;18.35;62.35;96675.78;10560962;28;20032;-30
2022/10/10 02:27:07;;;;;;;1.95;1.27;;;;;;;18.32;62.63;96663.97;10559866;28;20383;-31
2022/10/10 02:32:23;;;;;;;3.38;1.30;;;;;;;18.32;62.68;96668.19;10566864;28;20031;-31
2022/10/10 02:37:24;;;;;;;1.77;1.30;;;;;;;18.31;62.61;96671.53;10562971;28;20034;-30
2022/10/10 02:42:26;;;;;;;1.98;1.10;;;;;;;18.31;62.46;96671.53;10559494;28;20114;-29
2022/10/10 02:47:27;;;;;;;2.42;1.20;;;;;;;18.30;62.55;96665.66;10563655;28;20397;-29
2022/10/10 02:52:27;;;;;;;4.63;1.20;;;;;;;18.30;62.74;96670.72;10559676;28;20067;-29
2022/10/10 02:57:27;;;;;;;1.80;1.02;;;;;;;18.30;62.60;96664.78;10559835;28;20040;-30
2022/10/10 03:02:28;;;;;;;1.43;1.00;;;;;;;18.28;62.50;96677.44;10561304;28;20061;-29
2022/10/10 03:07:28;;;;;;;3.00;1.60;;;;;;;18.33;63.51;96652.16;10552099;28;20024;-30
2022/10/10 03:12:28;;;;;;;1.90;1.20;;;;;;;18.37;63.61;96662.28;10567478;28;20031;-29
2022/10/10 03:17:29;;;;;;;2.33;1.67;;;;;;;18.25;62.83;96646.19;10561022;28;20273;-30
2022/10/10 03:22:29;;;;;;;1.37;1.10;;;;;;;18.32;62.34;96647.91;10560196;28;20028;-29
2022/10/10 03:27:30;;;;;;;1.00;0.90;;;;;;;18.34;62.24;96651.28;10558059;28;20081;-29
2022/10/10 03:32:30;;;;;;;1.77;1.00;;;;;;;18.31;62.70;96662.28;10561278;28;20034;-29
2022/10/10 03:37:31;;;;;;;1.03;0.93;;;;;;;18.29;62.55;96645.34;10557449;28;20019;-30
2022/10/10 03:42:31;;;;;;;2.00;1.13;;;;;;;18.32;62.52;96660.59;10555186;28;20279;-29
2022/10/10 03:47:31;;;;;;;1.50;1.03;;;;;;;18.32;62.11;96663.13;10560074;28;20318;-28
2022/10/10 03:52:32;;;;;;;2.37;1.00;;;;;;;18.33;62.12;96669.88;10551336;28;20442;-30
2022/10/10 03:57:32;;;;;;;1.30;0.90;;;;;;;18.30;62.22;96654.66;10552538;28;20090;-29
2022/10/10 04:02:33;;;;;;;2.40;0.98;;;;;;;18.30;62.07;96663.13;10549782;28;20036;-29
2022/10/10 04:07:33;;;;;;;2.53;1.10;;;;;;;18.34;62.98;96661.44;10555706;28;20104;-29
2022/10/10 04:12:33;;;;;;;1.90;1.23;;;;;;;18.39;63.32;96664.78;10559753;28;20100;-28
2022/10/10 04:17:34;;;;;;;2.87;1.20;;;;;;;18.44;63.44;96673.25;10562401;28;20320;-30
2022/10/10 04:22:34;;;;;;;2.63;1.30;;;;;;;18.40;62.46;96674.13;10558018;28;20299;-31
2022/10/10 04:27:34;;;;;;;1.80;1.00;;;;;;;18.37;62.39;96672.41;10552248;28;20541;-30
2022/10/10 04:32:36;;;;;;;3.73;1.20;;;;;;;18.33;62.68;96680.84;10561795;28;20031;-30
2022/10/10 04:37:37;;;;;;;2.53;1.40;;;;;;;18.34;62.63;96682.53;10561755;28;20435;-30
2022/10/10 04:42:37;;;;;;;1.55;1.20;;;;;;;18.35;62.46;96680.84;10563983;28;20039;-31
2022/10/10 04:47:38;;;;;;;1.47;0.93;;;;;;;18.33;62.28;96682.56;10563567;28;20505;-30
2022/10/10 04:52:38;;;;;;;1.63;1.20;;;;;;;18.33;62.46;96685.91;10558516;28;20485;-30
2022/10/10 04:57:38;;;;;;;2.17;0.90;;;;;;;18.37;62.25;96691.84;10561739;28;20516;-30
2022/10/10 05:02:39;;;;;;;3.40;1.37;;;;;;;18.37;62.07;96686.75;10562764;28;20446;-30
2022/10/10 05:07:39;;;;;;;7.20;1.53;;;;;;;18.34;62.27;96691.84;10554674;28;20050;-29
2022/10/10 05:12:40;;;;;;;8.43;2.83;;;;;;;18.45;64.57;96685.06;10566282;28;20020;-30
2022/10/10 05:17:40;;;;;;;10.33;2.13;;;;;;;18.46;64.64;96695.22;10569899;28;20277;-29
2022/10/10 05:22:40;;;;;;;7.17;1.70;;;;;;;18.36;63.97;96685.94;10569192;28;20481;-29
2022/10/10 05:27:41;;;;;;;2.60;1.30;;;;;;;18.33;62.95;96690.16;10558604;28;20469;-30
2022/10/10 05:32:42;;;;;;;5.33;1.60;;;;;;;18.33;63.20;96697.75;10574016;28;20612;-30
2022/10/10 05:37:42;;;;;;;6.25;1.38;;;;;;;18.33;62.76;96685.91;10562519;28;20288;-29
2022/10/10 05:42:42;;;;;;;4.23;1.53;;;;;;;18.28;63.04;96676.59;10566762;28;20039;-29
2022/10/10 05:47:43;;;;;;;2.47;1.37;;;;;;;18.33;62.37;96690.16;10558248;28;20110;-30
2022/10/10 05:52:43;;;;;;;4.17;1.23;;;;;;;18.35;62.80;96691.00;10556724;28;20023;-30
2022/10/10 05:57:43;;;;;;;2.53;1.10;;;;;;;18.34;62.99;96694.38;10559628;28;20024;-30
2022/10/10 06:02:44;;;;;;;5.43;1.17;;;;;;;18.33;63.03;96697.75;10564565;28;20504;-30
2022/10/10 06:07:44;;;;;;;2.20;1.20;;;;;;;18.33;62.89;96711.25;10554855;28;20502;-29
2022/10/10 06:12:44;;;;;;;4.83;1.63;;;;;;;18.35;64.27;96704.50;10565936;28;20310;-29
2022/10/10 06:17:45;;;;;;;1.73;1.13;;;;;;;18.45;64.57;96712.97;10560995;28;20081;-30
2022/10/10 06:22:45;;;;;;;3.87;1.30;;;;;;;18.40;63.77;96718.03;10562755;28;20031;-30
2022/10/10 06:27:46;;;;;;;3.53;1.13;;;;;;;18.32;63.84;96719.72;10557355;28;20290;-29
2022/10/10 06:32:46;;;;;;;1.60;1.20;;;;;;;18.35;62.73;96734.09;10565369;28;20278;-30
2022/10/10 06:37:46;;;;;;;3.03;1.17;;;;;;;18.33;62.90;96736.59;10560919;28;20293;-30
2022/10/10 06:42:47;;;;;;;1.23;0.87;;;;;;;18.33;62.83;96751.81;10557341;28;20035;-29
2022/10/10 06:47:47;;;;;;;1.73;1.00;;;;;;;18.32;62.27;96739.16;10536736;28;20065;-30
2022/10/10 06:52:48;;;;;;;2.27;1.03;;;;;;;18.28;62.70;96725.59;10554410;28;20293;-30
2022/10/10 06:57:48;;;;;;;2.53;1.20;;;;;;;18.32;63.49;96754.38;10558597;28;20057;-30
2022/10/10 07:02:48;;;;;;;2.93;1.47;;;;;;;18.32;62.92;96759.44;10560389;28;20354;-29
2022/10/10 07:07:50;;;;;;;1.63;1.03;;;;;;;18.31;62.68;96758.56;10550894;28;20038;-29
2022/10/10 07:12:51;;;;;;;2.35;1.10;;;;;;;18.32;63.41;96769.56;10561543;28;20024;-30
2022/10/10 07:17:58;;;;;;;2.90;1.50;;;;;;;18.41;64.06;96774.66;10558701;28;20053;-29
2022/10/10 07:22:58;;;;;;;3.08;1.38;;;;;;;18.44;64.28;96780.56;10560757;28;20051;-30
2022/10/10 07:27:59;;;;;;;2.63;0.90;;;;;;;18.36;63.46;96781.38;10552529;28;20431;-30
2022/10/10 07:32:59;;;;;;;1.55;0.98;;;;;;;18.34;63.15;96785.63;10568326;28;20076;-29
2022/10/10 07:38:00;;;;;;;1.57;1.13;;;;;;;18.35;63.04;96794.91;10558692;28;20028;-30
2022/10/10 07:43:00;;;;;;;4.13;1.30;;;;;;;18.29;63.39;96784.72;10552473;28;20142;-29
2022/10/10 07:48:01;;;;;;;2.87;1.70;;;;;;;18.28;63.14;96783.03;10559649;28;20027;-30
2022/10/10 07:53:01;;;;;;;1.73;1.07;;;;;;;18.33;62.57;96806.75;10552249;28;20038;-29
2022/10/10 07:58:02;;;;;;;4.05;1.13;;;;;;;18.32;62.61;96805.88;10561347;28;20036;-29
2022/10/10 08:03:03;;;;;;;1.80;1.10;;;;;;;18.33;62.80;96804.22;10558260;28;20031;-30
2022/10/10 08:08:03;;;;;;;1.50;1.00;;;;;;;18.32;63.17;96807.59;10554369;28;20674;-30
2022/10/10 08:13:04;;;;;;;1.88;0.98;;;;;;;18.31;63.17;96810.94;10562624;28;20027;-30
2022/10/10 08:18:04;;;;;;;2.65;1.20;;;;;;;18.33;63.94;96804.22;10573826;28;20107;-29
2022/10/10 08:23:05;;;;;;;2.40;1.30;;;;;;;18.43;64.27;96805.91;10567670;28;20032;-30
2022/10/10 08:28:05;;;;;;;1.65;1.05;;;;;;;18.29;64.18;96787.25;10560859;28;20075;-31
2022/10/10 08:33:06;;;;;;;1.15;1.02;;;;;;;18.29;63.25;96799.94;10570244;28;20031;-29
2022/10/10 08:38:07;;;;;;;2.38;0.98;;;;;;;18.30;63.06;96796.59;10565061;28;20401;-30
2022/10/10 08:43:15;;;;;;;1.27;1.08;;;;;;;18.33;62.81;96807.56;10565362;28;20036;-29
2022/10/10 08:48:22;;;;;;;1.73;0.98;;;;;;;18.33;62.65;96816.88;10565169;28;20031;-29
2022/10/10 08:53:33;;;;;;;1.05;0.70;;;;;;;18.31;63.00;96810.94;10562750;28;20437;-31
2022/10/10 08:58:39;;;;;;;1.35;0.90;;;;;;;18.32;62.66;96812.66;10563601;28;20024;-29
2022/10/10 09:03:46;;;;;;;0.85;0.85;;;;;;;18.30;61.72;96809.25;10559138;28;20032;-29
2022/10/10 09:09:20;;;;;;;1.92;1.10;;;;;;;18.30;62.36;96812.66;10553337;28;20032;-30
2022/10/10 09:14:57;;;;;;;1.13;0.70;;;;;;;18.32;63.16;96815.19;10560550;28;20027;-29
2022/10/10 09:20:06;;;;;;;2.13;1.00;;;;;;;18.25;62.45;96803.31;10568555;28;20114;-29
2022/10/10 09:25:29;;;;;;;1.30;0.98;;;;;;;18.39;64.22;96812.66;10562345;28;20032;-29
2022/10/10 09:30:33;;;;;;;1.30;1.02;;;;;;;18.44;63.95;96830.41;10567726;28;20467;-30
2022/10/10 09:35:38;;;;;;;1.98;0.80;;;;;;;18.37;63.05;96814.34;10562195;28;20019;-29
2022/10/10 09:40:45;;;;;;;1.95;1.17;;;;;;;18.38;62.87;96825.31;10561918;28;20110;-29
2022/10/10 09:45:55;;;;;;;2.33;0.82;;;;;;;18.35;62.71;96823.63;10565017;28;20119;-29
2022/10/10 09:50:55;;;;;;;1.38;0.88;;;;;;;18.33;62.79;96822.78;10556496;28;20435;-29
2022/10/10 09:55:57;;;;;;;1.10;0.93;;;;;;;18.31;62.94;96810.94;10559578;28;20039;-29
2022/10/10 10:01:19;;;;;;;2.25;0.90;;;;;;;18.34;62.10;96818.56;10561993;28;20050;-29
2022/10/10 10:06:19;;;;;;;1.85;0.98;;;;;;;18.33;62.40;96817.72;10560425;28;20032;-29
2022/10/10 10:11:27;;;;;;;1.07;0.70;;;;;;;18.33;62.57;96807.56;10561136;28;20453;-29
2022/10/10 10:16:38;;;;;;;1.90;0.90;;;;;;;18.34;61.98;96818.56;10556287;28;20273;-30
2022/10/10 10:21:49;;;;;;;1.20;1.00;;;;;;;18.34;62.29;96816.03;10560907;28;20040;-29
2022/10/10 10:26:50;;;;;;;1.67;0.73;;;;;;;18.39;63.81;96811.81;10555267;28;20035;-29
2022/10/10 10:31:50;;;;;;;2.00;1.25;;;;;;;18.43;63.95;96814.34;10553866;27;20031;-29
2022/10/10 10:37:12;;;;;;;3.50;1.27;;;;;;;18.40;62.93;96809.28;10547532;28;20450;-30
2022/10/10 10:42:46;;;;;;;1.35;0.80;;;;;;;18.38;62.77;96803.38;10543610;28;20481;-30
2022/10/10 10:48:02;;;;;;;2.47;0.90;;;;;;;18.36;62.52;96799.13;10543293;28;20031;-30
2022/10/10 10:53:29;;;;;;;3.35;1.20;;;;;;;18.35;62.26;96797.44;10545548;27;20126;-30
2022/10/10 10:58:52;;;;;;;12.38;7.05;;;;;;;18.36;61.76;96804.22;10544850;28;20670;-29
2022/10/10 11:04:03;;;;;;;87.40;29.13;;;;;;;18.35;61.66;96794.91;10493884;27;20052;-30
2022/10/10 11:09:38;;;;;;;39.70;17.00;;;;;;;18.35;63.14;96794.91;10541714;28;20046;-31
2022/10/10 11:14:42;;;;;;;46.15;21.75;;;;;;;18.34;61.41;96794.06;10548039;28;20035;-29
2022/10/10 11:20:02;;;;;;;65.97;31.65;;;;;;;18.37;63.86;96789.00;10540363;28;20473;-31
2022/10/10 11:25:13;;;;;;;61.33;27.92;;;;;;;18.39;62.12;96789.00;10541323;28;20054;-30
2022/10/10 11:30:18;;;;;;;56.80;29.15;;;;;;;18.44;64.17;96784.78;10544159;28;20032;-29
2022/10/10 11:35:35;;;;;;;52.93;25.80;;;;;;;18.48;64.73;96781.38;10535568;27;20477;-29
2022/10/10 11:40:44;;;;;;;45.00;21.77;;;;;;;18.44;63.70;96785.66;10540462;28;20165;-32
2022/10/10 11:45:48;;;;;;;33.00;18.27;;;;;;;18.40;63.50;96783.94;10539814;28;20043;-31
2022/10/10 11:50:55;;;;;;;39.88;19.90;;;;;;;18.41;63.24;96790.69;10534636;28;20032;-29
2022/10/10 11:56:01;;;;;;;42.85;21.85;;;;;;;18.39;63.84;96774.66;10552466;28;20139;-29
2022/10/10 12:01:09;;;;;;;18.27;9.30;;;;;;;18.37;61.90;96768.72;10560110;28;20077;-29
2022/10/10 12:06:25;;;;;;;43.40;20.70;;;;;;;18.39;62.25;96767.03;10558302;28;20039;-29
2022/10/10 12:11:35;;;;;;;34.28;18.38;;;;;;;18.38;62.85;96770.41;10558456;28;20042;-29
2022/10/10 12:16:36;;;;;;;36.33;20.52;;;;;;;18.38;61.86;96760.28;10554524;28;20020;-30
2022/10/10 12:22:03;;;;;;;35.00;18.38;;;;;;;18.38;62.24;96769.56;10553881;28;20043;-29
2022/10/10 12:27:05;;;;;;;42.53;21.70;;;;;;;18.39;63.42;96766.19;10545443;28;20039;-31
2022/10/10 12:32:16;;;;;;;38.85;22.23;;;;;;;18.41;65.18;96755.19;10564312;28;20496;-28
2022/10/10 12:37:25;;;;;;;40.22;22.63;;;;;;;18.48;65.46;96758.56;10562233;28;20043;-31
2022/10/10 12:42:29;;;;;;;25.90;16.67;;;;;;;18.45;64.09;96766.19;10547056;28;20547;-29
2022/10/10 12:47:43;;;;;;;27.55;16.15;;;;;;;18.43;63.65;96762.81;10545966;28;20474;-30
2022/10/10 12:52:51;;;;;;;24.23;13.23;;;;;;;18.40;63.39;96762.81;10541593;28;20042;-29
2022/10/10 12:57:55;;;;;;;28.02;14.35;;;;;;;18.40;62.90;96762.81;10530893;28;20035;-29
2022/10/10 13:03:00;;;;;;;31.02;15.32;;;;;;;18.36;62.25;96758.59;10548850;28;20047;-29
2022/10/10 13:08:10;;;;;;;23.52;10.88;;;;;;;18.37;62.02;96763.66;10543921;28;20502;-29
2022/10/10 13:13:19;;;;;;;33.28;16.58;;;;;;;18.35;61.89;96754.34;10546783;28;20058;-31
2022/10/10 13:18:33;;;;;;;35.55;17.98;;;;;;;18.39;61.85;96751.81;10542032;28;20031;-30
2022/10/10 13:23:36;;;;;;;31.92;14.85;;;;;;;18.39;61.54;96761.09;10555563;28;20151;-30
2022/10/10 13:28:36;;;;;;;34.30;17.30;;;;;;;18.39;64.87;96756.03;10547711;28;20028;-29
2022/10/10 13:33:37;;;;;;;26.83;14.75;;;;;;;18.39;63.83;96756.91;10542051;28;20574;-30
2022/10/10 13:38:37;;;;;;;33.35;15.93;;;;;;;18.46;65.20;96755.19;10552542;28;20040;-29
2022/10/10 13:43:39;;;;;;;39.85;17.23;;;;;;;18.54;65.97;96756.06;10551119;28;20107;-29
2022/10/10 13:48:40;;;;;;;31.42;13.95;;;;;;;18.53;64.36;96769.56;10564309;28;20049;-29
2022/10/10 13:53:40;;;;;;;22.80;11.75;;;;;;;18.50;63.57;96767.06;10561637;28;20016;-30
2022/10/10 13:58:46;;;;;;;21.53;12.10;;;;;;;18.44;62.56;96760.28;10561813;28;20477;-29
2022/10/10 14:03:49;;;;;;;25.80;13.23;;;;;;;18.44;61.88;96764.50;10538010;28;20374;-29
2022/10/10 14:08:50;;;;;;;24.98;12.75;;;;;;;18.43;61.71;96768.72;10558635;28;20435;-30
2022/10/10 14:13:56;;;;;;;27.65;12.52;;;;;;;18.42;61.63;96761.13;10561767;28;20028;-30
2022/10/10 14:18:57;;;;;;;17.60;10.02;;;;;;;18.39;61.53;96769.56;10538296;28;20028;-30
2022/10/10 14:23:57;;;;;;;19.85;10.95;;;;;;;18.38;61.51;96767.88;10564199;28;20047;-29
2022/10/10 14:28:58;;;;;;;19.58;9.18;;;;;;;18.39;61.15;96776.31;10555766;28;20044;-30
2022/10/10 14:33:58;;;;;;;17.90;10.03;;;;;;;18.39;61.30;96776.31;10564428;28;20071;-30
2022/10/10 14:38:59;;;;;;;16.73;10.32;;;;;;;18.39;61.27;96781.38;10543161;28;20736;-30
2022/10/10 14:43:59;;;;;;;23.40;12.38;;;;;;;18.51;65.80;96787.31;10560329;28;20234;-29
2022/10/10 14:48:59;;;;;;;21.13;11.48;;;;;;;18.55;65.97;96788.16;10557567;28;20023;-30
2022/10/10 14:54:00;;;;;;;21.42;11.13;;;;;;;18.52;64.40;96783.09;10540115;28;20435;-29
2022/10/10 14:59:00;;;;;;;13.00;7.50;;;;;;;18.49;61.80;96788.19;10557349;28;20424;-30
2022/10/10 15:04:01;;;;;;;19.45;7.90;;;;;;;18.50;61.44;96784.81;10534842;28;20304;-30
2022/10/10 15:09:01;;;;;;;12.97;8.43;;;;;;;18.49;61.10;96789.00;10555546;28;20057;-29
2022/10/10 15:14:02;;;;;;;12.90;7.88;;;;;;;18.50;61.09;96800.00;10540257;28;20322;-29
2022/10/10 15:19:02;;;;;;;16.33;8.63;;;;;;;18.53;61.29;96802.53;10553821;28;20027;-30
2022/10/10 15:24:03;;;;;;;14.88;8.45;;;;;;;18.56;61.53;96808.47;10556686;28;20057;-30
2022/10/10 15:29:04;;;;;;;12.82;8.38;;;;;;;18.57;61.58;96806.78;10558729;28;20424;-29
2022/10/10 15:34:04;;;;;;;17.55;8.30;;;;;;;18.55;61.19;96808.44;10560942;28;20032;-29
2022/10/10 15:39:05;;;;;;;12.85;7.78;;;;;;;18.51;61.17;96806.78;10540683;28;20024;-29
2022/10/10 15:44:12;;;;;;;12.05;7.63;;;;;;;18.52;61.34;96814.38;10562026;28;20081;-30
2022/10/10 15:49:13;;;;;;;21.13;12.10;;;;;;;18.60;65.50;96816.91;10537068;28;20220;-30
2022/10/10 15:54:14;;;;;;;17.13;11.05;;;;;;;18.62;65.42;96820.28;10524440;28;20481;-30
2022/10/10 15:59:14;;;;;;;14.10;7.95;;;;;;;18.59;62.42;96820.31;10536442;28;20394;-30
2022/10/10 16:04:14;;;;;;;14.60;7.90;;;;;;;18.57;61.63;96822.00;10557791;28;20036;-30
2022/10/10 16:09:15;;;;;;;14.43;8.18;;;;;;;18.56;61.63;96822.81;10560505;28;20024;-29
2022/10/10 16:14:15;;;;;;;14.68;8.32;;;;;;;18.54;61.37;96825.38;10534349;28;20053;-30
2022/10/10 16:19:16;;;;;;;11.88;7.43;;;;;;;18.55;61.34;96828.72;10554523;28;20066;-30
2022/10/10 16:24:16;;;;;;;14.25;8.82;;;;;;;18.51;61.89;96827.88;10545295;28;20489;-29
2022/10/10 16:29:17;;;;;;;14.90;7.93;;;;;;;18.55;61.63;96839.75;10539830;28;20051;-30
2022/10/10 16:34:18;;;;;;;12.05;7.20;;;;;;;18.54;61.39;96847.31;10551578;28;20273;-31
2022/10/10 16:39:18;;;;;;;12.82;7.82;;;;;;;18.54;61.32;96857.47;10565249;28;20110;-29
2022/10/10 16:44:19;;;;;;;10.35;7.25;;;;;;;18.55;61.27;96856.63;10563885;28;20031;-31
2022/10/10 16:49:21;;;;;;;18.43;9.30;;;;;;;18.54;63.31;96865.06;10563061;28;20110;-31
2022/10/10 16:54:22;;;;;;;14.68;8.43;;;;;;;18.58;65.39;96869.31;10562181;28;20343;-31
2022/10/10 16:59:22;;;;;;;14.45;8.10;;;;;;;18.59;65.68;96866.78;10557649;28;20039;-30
2022/10/10 17:04:23;;;;;;;14.57;8.67;;;;;;;18.56;63.71;96871.00;10569784;28;20027;-31
2022/10/10 17:09:23;;;;;;;12.53;8.10;;;;;;;18.55;62.25;96874.38;10572032;28;20024;-31
2022/10/10 17:14:24;;;;;;;14.95;8.15;;;;;;;18.54;61.69;96872.69;10563135;28;20039;-31
2022/10/10 17:19:24;;;;;;;13.20;6.80;;;;;;;18.50;62.22;96881.97;10560732;28;20030;-32
2022/10/10 17:24:25;;;;;;;12.70;7.68;;;;;;;18.53;61.55;96884.53;10545522;27;20711;-30
2022/10/10 17:29:25;;;;;;;11.65;6.80;;;;;;;18.53;61.70;96897.22;10561399;28;20360;-30
2022/10/10 17:34:25;;;;;;;12.20;7.28;;;;;;;18.53;61.49;96904.81;10562067;28;20508;-32
2022/10/10 17:39:26;;;;;;;10.18;6.43;;;;;;;18.52;61.42;96909.88;10530584;28;20138;-32
2022/10/10 17:44:26;;;;;;;10.63;7.35;;;;;;;18.54;61.22;96918.31;10548936;27;20036;-31
2022/10/10 17:49:27;;;;;;;12.47;6.53;;;;;;;18.55;61.46;96930.16;10553187;28;20093;-31
2022/10/10 17:54:27;;;;;;;19.17;8.23;;;;;;;18.56;64.76;96922.56;10557836;27;20286;-31
2022/10/10 17:59:28;;;;;;;16.88;8.75;;;;;;;18.59;65.77;96931.88;10560015;27;20036;-32
2022/10/10 18:04:28;;;;;;;13.60;8.15;;;;;;;18.62;65.60;96934.41;10555417;28;20081;-31
2022/10/10 18:09:29;;;;;;;11.68;6.75;;;;;;;18.60;64.26;96944.53;10561275;28;20015;-32
2022/10/10 18:14:29;;;;;;;10.63;6.67;;;;;;;18.59;61.98;96958.06;10558288;28;20024;-31
2022/10/10 18:19:29;;;;;;;10.98;6.38;;;;;;;18.57;61.78;96954.69;10553511;28;20028;-31
2022/10/10 18:24:30;;;;;;;13.07;7.55;;;;;;;18.56;62.67;96972.41;10559195;28;20075;-30
2022/10/10 18:29:30;;;;;;;10.15;6.68;;;;;;;18.40;61.71;96946.16;10544996;28;20106;-33
2022/10/10 18:34:31;;;;;;;9.93;6.73;;;;;;;18.54;61.61;96963.97;10560898;28;20115;-32
2022/10/10 18:39:34;;;;;;;10.90;6.57;;;;;;;18.53;61.69;96962.28;10555260;28;20277;-31
2022/10/10 18:44:34;;;;;;;10.70;6.78;;;;;;;18.53;61.68;96973.28;10560548;28;20032;-31
2022/10/10 18:49:35;;;;;;;9.15;6.47;;;;;;;18.53;61.72;96970.75;10551576;28;20042;-30
2022/10/10 18:54:36;;;;;;;14.90;6.72;;;;;;;18.53;61.72;96980.03;10553925;28;20486;-33
2022/10/10 18:59:36;;;;;;;12.20;7.32;;;;;;;18.56;65.22;96985.94;10548179;28;20057;-31
2022/10/10 19:04:36;;;;;;;14.17;6.57;;;;;;;18.58;65.75;96988.50;10548017;28;20436;-32
2022/10/10 19:09:38;;;;;;;11.60;6.72;;;;;;;18.61;65.22;96991.91;10558471;28;20273;-32
2022/10/10 19:14:39;;;;;;;10.68;6.43;;;;;;;18.59;63.80;96996.09;10532407;28;20027;-31
2022/10/10 19:19:39;;;;;;;8.57;6.18;;;;;;;18.55;62.53;97006.22;10561763;28;20072;-31
2022/10/10 19:24:40;;;;;;;9.27;6.50;;;;;;;18.55;62.51;97007.09;10542835;28;20085;-31
2022/10/10 19:29:40;;;;;;;9.90;5.87;;;;;;;18.53;62.18;97012.97;10556166;28;20292;-31
2022/10/10 19:34:42;;;;;;;10.95;6.50;;;;;;;18.54;62.04;97019.75;10553137;28;20301;-31
2022/10/10 19:39:42;;;;;;;8.13;5.68;;;;;;;18.52;62.01;97012.16;10557576;28;20023;-31
2022/10/10 19:44:46;;;;;;;9.80;5.40;;;;;;;18.51;62.08;97019.75;10561443;28;20093;-33
2022/10/10 19:49:46;;;;;;;8.85;5.82;;;;;;;18.48;61.90;97025.63;10549890;28;20282;-31
2022/10/10 19:54:46;;;;;;;9.45;5.65;;;;;;;18.50;61.80;97029.03;10555007;28;20024;-32
2022/10/10 19:59:47;;;;;;;10.43;6.38;;;;;;;18.50;61.68;97043.41;10555193;28;20055;-31
2022/10/10 20:04:47;;;;;;;9.60;6.45;;;;;;;18.55;65.63;97059.47;10523835;28;20112;-31
2022/10/10 20:09:49;;;;;;;12.50;7.00;;;;;;;18.59;65.83;97054.41;10566867;28;20031;-31
2022/10/10 20:14:49;;;;;;;8.38;6.15;;;;;;;18.62;65.52;97064.59;10546167;28;20349;-30
2022/10/10 20:19:50;;;;;;;9.65;6.20;;;;;;;18.57;63.91;97070.50;10565851;28;20390;-30
2022/10/10 20:24:50;;;;;;;9.68;5.80;;;;;;;18.56;63.67;97073.84;10564618;28;20393;-31
2022/10/10 20:29:51;;;;;;;10.20;6.00;;;;;;;18.52;62.46;97089.88;10557468;28;20028;-31
2022/10/10 20:34:51;;;;;;;8.85;5.78;;;;;;;18.51;62.20;97083.97;10550306;28;20413;-31
2022/10/10 20:39:51;;;;;;;9.32;6.40;;;;;;;18.51;62.34;97088.19;10563659;28;20582;-31
2022/10/10 20:44:52;;;;;;;7.65;5.55;;;;;;;18.50;61.89;97096.66;10555565;28;20042;-33
2022/10/10 20:49:52;;;;;;;8.05;5.57;;;;;;;18.51;62.14;97095.81;10558850;28;20035;-33
2022/10/10 20:54:53;;;;;;;9.93;5.53;;;;;;;18.48;61.96;97095.75;10560697;28;20107;-30
2022/10/10 20:59:54;;;;;;;9.73;5.43;;;;;;;18.49;61.78;97092.41;10564144;28;20416;-31
2022/10/10 21:04:54;;;;;;;8.75;6.07;;;;;;;18.48;61.80;97089.03;10565617;28;20028;-32
2022/10/10 21:09:55;;;;;;;8.80;6.05;;;;;;;18.53;65.29;97087.38;10568139;28;20050;-31
2022/10/10 21:15:00;;;;;;;9.48;6.20;;;;;;;18.58;65.46;97083.16;10565289;28;20032;-30
2022/10/10 21:20:01;;;;;;;7.43;5.00;;;;;;;18.59;64.60;97073.88;10557825;28;20052;-32
2022/10/10 21:25:01;;;;;;;7.85;5.70;;;;;;;18.54;63.67;97065.38;10565719;28;20035;-31
2022/10/10 21:30:02;;;;;;;7.82;5.55;;;;;;;18.53;62.41;97069.63;10544692;28;20042;-31
2022/10/10 21:35:04;;;;;;;7.20;5.32;;;;;;;18.45;62.18;97065.34;10566643;28;20024;-30
2022/10/10 21:40:05;;;;;;;8.05;5.50;;;;;;;18.50;62.29;97082.25;10563704;28;20072;-31
2022/10/10 21:45:06;;;;;;;9.50;5.38;;;;;;;18.51;62.20;97085.66;10551927;28;20028;-31
2022/10/10 21:50:07;;;;;;;7.22;4.80;;;;;;;18.49;61.96;97087.34;10533758;28;20047;-30
2022/10/10 21:55:08;;;;;;;6.63;4.63;;;;;;;18.49;62.02;97097.50;10563858;28;20027;-32
2022/10/10 22:00:09;;;;;;;7.65;5.35;;;;;;;18.48;61.88;97093.22;10556953;28;20032;-31
2022/10/10 22:05:12;;;;;;;8.10;5.45;;;;;;;18.48;62.08;97100.84;10555135;28;20035;-30
2022/10/10 22:10:15;;;;;;;5.80;4.38;;;;;;;18.48;61.87;97111.84;10548512;28;20068;-32
2022/10/10 22:15:16;;;;;;;8.75;5.43;;;;;;;18.55;65.11;97113.59;10562135;28;20035;-30
2022/10/10 22:20:16;;;;;;;7.45;5.38;;;;;;;18.57;65.39;97098.38;10530395;28;20484;-30
2022/10/10 22:25:17;;;;;;;7.97;5.22;;;;;;;18.57;64.05;97106.81;10562401;28;20024;-31
2022/10/10 22:30:18;;;;;;;6.50;4.80;;;;;;;18.56;63.54;97114.41;10565882;28;20032;-31
2022/10/10 22:35:18;;;;;;;7.57;4.88;;;;;;;18.52;62.82;97110.19;10552594;28;20035;-30
2022/10/10 22:40:21;;;;;;;7.05;4.80;;;;;;;18.52;62.62;97108.50;10565842;28;20023;-32
2022/10/10 22:45:21;;;;;;;7.53;5.20;;;;;;;18.49;62.12;97107.63;10549760;28;20032;-31
2022/10/10 22:50:22;;;;;;;7.90;5.10;;;;;;;18.49;61.82;97107.63;10563817;28;20039;-31
2022/10/10 22:55:22;;;;;;;6.72;5.00;;;;;;;18.49;61.99;97108.47;10544999;28;20020;-31
2022/10/10 23:00:23;;;;;;;7.45;4.65;;;;;;;18.46;62.07;97099.97;10564342;28;20038;-32
2022/10/10 23:05:24;;;;;;;8.17;5.80;;;;;;;18.49;61.94;97107.63;10545733;28;20027;-31
2022/10/10 23:10:25;;;;;;;6.00;4.40;;;;;;;18.44;61.89;97105.06;10530295;28;20361;-30
2022/10/10 23:15:25;;;;;;;6.95;4.78;;;;;;;18.50;61.72;97111.88;10558870;28;20046;-31
2022/10/10 23:20:25;;;;;;;6.78;4.20;;;;;;;18.55;65.09;97103.44;10540537;28;20027;-32
2022/10/10 23:25:26;;;;;;;7.10;4.72;;;;;;;18.57;65.09;97095.84;10559175;28;20040;-31